Time;durP1;ratioP1;P1;durP2;ratioP2;P2;SDS_P1;SDS_P2;PMS_P1;PMS_P2;Temp;Humidity;BMP_temperature;BMP_pressure;BME280_temperature;BME280_humidity;BME280_pressure;Samples;Min_cycle;Max_cycle;Signal;HPM_P1;HPM_P2
2022/12/19 00:01:42;;;;;;;75.57;22.35;;;;;;;-0.13;62.63;100151.94;5156209;28;20042;-70
2022/12/19 00:04:33;;;;;;;73.32;22.02;;;;;;;-0.20;62.86;100151.28;5162110;28;20562;-69
2022/12/19 00:07:23;;;;;;;66.18;21.67;;;;;;;-0.31;62.27;100141.19;5163095;28;20061;-69
2022/12/19 00:10:13;;;;;;;67.95;21.77;;;;;;;-0.15;62.83;100153.75;5163675;28;20520;-70
2022/12/19 00:13:03;;;;;;;65.35;22.73;;;;;;;-0.15;62.62;100167.66;5162390;28;20419;-70
2022/12/19 00:15:54;;;;;;;65.65;22.63;;;;;;;-0.07;62.90;100149.16;5159642;28;20057;-69
2022/12/19 00:18:45;;;;;;;71.47;23.20;;;;;;;-0.12;62.77;100148.47;5176537;28;20054;-69
2022/12/19 00:21:36;;;;;;;66.82;22.15;;;;;;;-0.22;62.49;100145.28;5149563;28;20066;-70
2022/12/19 00:24:26;;;;;;;71.90;22.75;;;;;;;0.02;62.62;100116.72;5161626;28;20106;-69
2022/12/19 00:27:16;;;;;;;64.63;20.92;;;;;;;0.01;61.64;100131.53;5165661;28;20046;-70
2022/12/19 00:30:07;;;;;;;64.43;22.65;;;;;;;-0.02;61.52;100122.03;5164658;28;20104;-74
2022/12/19 00:32:57;;;;;;;68.43;21.58;;;;;;;-0.12;61.82;100111.97;5163738;28;20129;-70
2022/12/19 00:35:47;;;;;;;65.10;22.23;;;;;;;-0.35;62.83;100107.47;5149244;28;20583;-71
2022/12/19 00:38:37;;;;;;;66.72;21.17;;;;;;;-1.14;66.07;100098.53;5161855;28;20128;-69
2022/12/19 00:41:31;;;;;;;67.68;22.50;;;;;;;-1.83;67.78;100083.91;5161855;28;20143;-70
2022/12/19 00:44:21;;;;;;;65.70;22.30;;;;;;;-1.68;67.75;100106.94;5163176;28;20539;-69
2022/12/19 00:47:11;;;;;;;64.97;22.05;;;;;;;-1.26;67.05;100111.88;5161794;28;20062;-70
2022/12/19 00:50:02;;;;;;;73.28;24.00;;;;;;;-1.31;65.95;100103.34;5162810;28;20062;-70
2022/12/19 00:52:52;;;;;;;67.57;22.13;;;;;;;-0.69;65.65;100107.66;5161765;28;20508;-70
2022/12/19 00:55:42;;;;;;;65.03;21.45;;;;;;;-0.37;63.27;100088.41;5147655;28;20128;-70
2022/12/19 00:58:33;;;;;;;59.63;21.33;;;;;;;-0.62;64.39;100089.19;5160534;28;20124;-70
2022/12/19 01:01:31;;;;;;;66.10;21.95;;;;;;;-1.00;64.83;100085.94;5160129;28;20085;-70
2022/12/19 01:04:22;;;;;;;58.00;20.98;;;;;;;-1.03;65.59;100083.44;5162718;28;20438;-70
2022/12/19 01:07:17;;;;;;;62.30;21.90;;;;;;;-0.92;65.35;100077.94;5161870;28;20112;-69
2022/12/19 01:10:08;;;;;;;68.15;21.90;;;;;;;-1.23;66.69;100094.41;5173094;28;20077;-70
2022/12/19 01:12:58;;;;;;;65.97;23.30;;;;;;;-1.19;66.57;100077.84;5162478;28;20053;-69
2022/12/19 01:15:48;;;;;;;62.85;20.98;;;;;;;-0.90;66.10;100091.75;5148789;28;20124;-69
2022/12/19 01:18:38;;;;;;;60.42;21.73;;;;;;;-1.01;65.79;100071.25;5161610;28;20065;-70
2022/12/19 01:21:28;;;;;;;65.25;21.90;;;;;;;-0.73;65.20;100066.09;5161593;28;20104;-69
2022/12/19 01:24:18;;;;;;;58.85;20.60;;;;;;;-0.93;65.65;100047.56;5161484;28;20420;-70
2022/12/19 01:27:11;;;;;;;67.93;21.75;;;;;;;-0.34;64.91;100065.72;5161439;28;20073;-70
2022/12/19 01:30:03;;;;;;;67.43;21.30;;;;;;;-0.02;63.86;100074.25;5161369;28;20682;-70
2022/12/19 01:32:55;;;;;;;63.50;20.80;;;;;;;0.15;63.31;100081.50;5161437;28;20061;-71
2022/12/19 01:35:46;;;;;;;62.78;23.95;;;;;;;-0.08;64.41;100070.09;5147509;28;20061;-69
2022/12/19 01:38:36;;;;;;;58.20;21.13;;;;;;;-0.11;63.70;100084.97;5161739;28;20108;-68
2022/12/19 01:41:26;;;;;;;71.05;22.85;;;;;;;-0.22;62.67;100045.41;5161652;28;20521;-68
2022/12/19 01:44:16;;;;;;;62.10;21.70;;;;;;;0.05;63.67;100077.50;5161612;28;20069;-68
2022/12/19 01:47:11;;;;;;;61.30;21.60;;;;;;;0.06;63.60;100074.84;5147208;28;20049;-68
2022/12/19 01:50:02;;;;;;;62.95;20.75;;;;;;;0.23;63.10;100043.84;5148858;28;20046;-68
2022/12/19 01:52:54;;;;;;;60.47;20.33;;;;;;;0.47;62.58;100047.34;5161133;28;20049;-69
2022/12/19 01:55:45;;;;;;;69.55;22.17;;;;;;;0.50;62.78;100051.63;5174026;28;20050;-69
2022/12/19 01:58:38;;;;;;;57.65;20.10;;;;;;;0.67;62.41;100053.63;5161013;28;20060;-69
2022/12/19 02:01:28;;;;;;;58.47;19.98;;;;;;;0.70;62.02;100037.84;5160251;28;20054;-69
2022/12/19 02:04:19;;;;;;;59.80;20.58;;;;;;;0.62;63.17;100022.44;5161136;28;20421;-68
2022/12/19 02:07:11;;;;;;;61.80;20.48;;;;;;;0.78;62.14;100009.69;5158432;28;20061;-69
2022/12/19 02:10:05;;;;;;;60.92;18.67;;;;;;;0.72;62.49;100041.22;5149108;28;20058;-69
2022/12/19 02:12:58;;;;;;;67.18;21.30;;;;;;;0.88;62.21;100033.69;5160755;28;20046;-69
2022/12/19 02:16:03;;;;;;;57.53;19.67;;;;;;;0.89;62.51;100036.25;5188009;28;20118;-69
2022/12/19 02:19:18;;;;;;;58.53;20.15;;;;;;;0.97;61.76;100014.22;5159991;28;20057;-68
2022/12/19 02:22:16;;;;;;;;;;;;;;;0.85;62.73;100012.91;5158670;28;20050;-69
2022/12/19 02:25:20;;;;;;;62.60;20.35;;;;;;;0.84;63.05;99991.19;5174566;28;20411;-68
2022/12/19 02:28:31;;;;;;;62.85;20.23;;;;;;;0.97;63.12;100014.22;5147991;28;20484;-69
2022/12/19 02:31:27;;;;;;;57.80;19.40;;;;;;;0.62;63.71;99969.41;5160057;28;20436;-69
2022/12/19 02:34:32;;;;;;;62.97;20.05;;;;;;;0.90;63.47;100014.44;5152944;28;20086;-69
2022/12/19 02:37:31;;;;;;;70.13;22.02;;;;;;;1.14;62.93;100011.81;5159990;28;20058;-68
2022/12/19 02:40:31;;;;;;;60.47;20.85;;;;;;;1.14;62.65;99986.53;5160603;28;20456;-69
2022/12/19 02:43:23;;;;;;;57.42;20.15;;;;;;;1.16;63.24;100010.84;5160488;28;20144;-69
2022/12/19 02:46:17;;;;;;;63.58;21.23;;;;;;;1.29;62.29;100002.50;5147796;28;20175;-68
2022/12/19 02:49:08;;;;;;;61.80;20.48;;;;;;;1.25;61.98;100006.16;5159324;28;20050;-69
2022/12/19 02:52:17;;;;;;;63.40;20.25;;;;;;;1.64;60.48;99985.41;5158718;28;20053;-69
2022/12/19 02:55:20;;;;;;;58.63;18.90;;;;;;;1.49;61.64;100013.03;5165230;28;20074;-69
2022/12/19 02:58:18;;;;;;;61.45;20.77;;;;;;;1.27;62.70;100005.19;5163110;28;20073;-68
2022/12/19 03:01:51;;;;;;;63.50;20.35;;;;;;;1.45;62.94;100006.22;5147509;28;20076;-70
2022/12/19 03:04:49;;;;;;;70.20;21.17;;;;;;;1.41;63.14;100029.00;5163141;28;20125;-70
2022/12/19 03:07:51;;;;;;;62.70;20.90;;;;;;;1.45;63.04;100018.44;5150336;28;20050;-69
2022/12/19 03:10:44;;;;;;;65.47;22.08;;;;;;;1.48;63.22;100034.00;5149863;28;20124;-70
2022/12/19 03:13:43;;;;;;;63.38;20.60;;;;;;;1.57;62.94;100013.56;5162994;28;21363;-69
2022/12/19 03:16:35;;;;;;;65.53;21.48;;;;;;;1.61;62.83;100009.91;5162053;28;20116;-68
2022/12/19 03:19:27;;;;;;;62.08;21.92;;;;;;;1.38;63.22;100018.66;5163436;28;20073;-68
2022/12/19 03:22:17;;;;;;;57.10;20.60;;;;;;;1.47;63.10;100006.16;5163047;28;20054;-70
2022/12/19 03:25:08;;;;;;;67.40;22.08;;;;;;;1.49;63.23;100004.31;5163841;28;20120;-69
2022/12/19 03:28:09;;;;;;;61.63;21.85;;;;;;;1.60;63.19;100021.28;5162559;28;20105;-70
2022/12/19 03:31:01;;;;;;;62.75;22.30;;;;;;;1.57;63.01;100007.50;5161260;28;20058;-68
2022/12/19 03:34:00;;;;;;;66.47;22.10;;;;;;;1.47;63.81;100008.78;5164578;28;20108;-68
2022/12/19 03:36:55;;;;;;;69.55;22.35;;;;;;;1.90;62.14;100014.88;5149825;28;20204;-70
2022/12/19 03:39:49;;;;;;;61.47;21.40;;;;;;;1.69;62.73;100025.31;5164925;28;20062;-68
2022/12/19 03:46:05;;;;;;;62.97;22.05;;;;;;;1.51;62.07;100013.81;5158083;28;20057;-70
2022/12/19 03:48:55;;;;;;;61.40;22.23;;;;;;;1.67;63.98;100029.72;5150394;28;20049;-69
2022/12/19 03:52:10;;;;;;;69.95;23.05;;;;;;;1.60;64.27;100016.06;5162511;28;20068;-70
2022/12/19 03:55:12;;;;;;;68.25;23.10;;;;;;;1.52;63.52;100020.72;5149076;28;20046;-69
2022/12/19 03:58:13;;;;;;;65.47;22.55;;;;;;;1.40;63.53;100005.56;5162563;28;20516;-68
2022/12/19 04:01:04;;;;;;;67.10;23.58;;;;;;;1.46;64.41;100013.16;5162837;28;20054;-69
2022/12/19 04:03:56;;;;;;;64.90;22.88;;;;;;;1.46;63.67;100001.84;5160681;28;20053;-69
2022/12/19 04:06:48;;;;;;;70.53;22.58;;;;;;;1.82;62.54;100013.44;5149415;28;20227;-68
2022/12/19 04:09:41;;;;;;;66.85;23.33;;;;;;;1.80;63.57;100025.69;5161844;28;20069;-69
2022/12/19 04:12:37;;;;;;;64.68;22.25;;;;;;;1.83;64.18;100036.03;5159343;28;20563;-68
2022/12/19 04:15:39;;;;;;;65.80;23.20;;;;;;;1.75;64.28;100013.72;5160768;28;20105;-69
2022/12/19 04:18:30;;;;;;;67.45;22.60;;;;;;;1.95;63.03;100021.59;5163944;28;20066;-69
2022/12/19 04:21:30;;;;;;;66.72;21.85;;;;;;;2.22;62.25;100019.59;5163256;28;20587;-68
2022/12/19 04:24:28;;;;;;;67.22;23.52;;;;;;;2.29;61.74;100015.78;5151594;28;20057;-68
2022/12/19 04:27:20;;;;;;;72.78;23.05;;;;;;;1.98;64.13;100023.22;5147520;28;20054;-68
2022/12/19 04:30:14;;;;;;;68.65;22.33;;;;;;;2.11;62.54;100019.19;5161627;28;20046;-68
2022/12/19 04:33:04;;;;;;;67.10;23.40;;;;;;;1.63;64.74;100018.56;5163455;28;20047;-69
2022/12/19 04:35:57;;;;;;;67.82;20.45;;;;;;;1.79;63.65;100016.16;5168034;28;20064;-68
2022/12/19 04:38:47;;;;;;;69.97;22.75;;;;;;;1.81;63.53;100023.94;5172276;28;20489;-68
2022/12/19 04:41:38;;;;;;;66.38;21.73;;;;;;;1.70;64.02;100016.53;5159809;28;20145;-69
2022/12/19 04:44:28;;;;;;;70.53;22.67;;;;;;;1.93;64.35;100027.81;5159650;28;20062;-69
2022/12/19 04:47:18;;;;;;;59.05;21.40;;;;;;;1.92;63.20;100018.25;5162564;28;20100;-69
2022/12/19 04:50:08;;;;;;;64.57;23.38;;;;;;;1.61;65.41;100016.91;5148638;28;20081;-69
2022/12/19 04:52:59;;;;;;;66.35;21.95;;;;;;;1.72;63.75;99979.84;5162406;28;20061;-69
2022/12/19 04:55:50;;;;;;;66.22;21.88;;;;;;;1.60;65.08;100005.59;5161865;28;20057;-69
2022/12/19 04:58:40;;;;;;;61.08;20.85;;;;;;;1.25;66.66;100006.16;5160751;28;20057;-68
2022/12/19 05:01:30;;;;;;;63.50;21.65;;;;;;;0.98;67.32;100010.69;5159014;28;20141;-69
2022/12/19 05:04:20;;;;;;;68.55;22.13;;;;;;;1.22;66.56;100014.97;5161896;28;20046;-69
2022/12/19 05:07:12;;;;;;;64.20;22.13;;;;;;;1.43;66.43;100018.50;5162554;28;20058;-69
2022/12/19 05:10:03;;;;;;;62.15;20.92;;;;;;;1.75;64.54;100006.72;5147641;28;20073;-69
2022/12/19 05:12:54;;;;;;;66.70;21.73;;;;;;;1.87;65.25;100005.38;5160524;28;20050;-69
2022/12/19 05:15:54;;;;;;;67.15;22.65;;;;;;;1.57;65.30;99991.81;5161561;28;20094;-69
2022/12/19 05:18:45;;;;;;;64.75;20.42;;;;;;;1.90;64.23;99996.56;5162192;28;20072;-68
2022/12/19 05:21:35;;;;;;;67.13;23.00;;;;;;;1.19;66.08;99999.41;5188391;28;20069;-68
2022/12/19 05:24:25;;;;;;;61.40;20.58;;;;;;;1.65;64.02;99953.13;5162093;28;20057;-69
2022/12/19 05:27:15;;;;;;;69.03;22.13;;;;;;;1.78;64.77;99990.06;5161347;28;20052;-69
2022/12/19 05:30:06;;;;;;;63.38;21.73;;;;;;;1.90;64.89;99996.56;5171719;28;20243;-69
2022/12/19 05:32:57;;;;;;;61.35;21.52;;;;;;;1.77;64.95;99976.16;5161823;28;20133;-69
2022/12/19 05:35:48;;;;;;;74.15;21.20;;;;;;;2.34;63.01;99997.25;5161767;28;20058;-69
2022/12/19 05:38:38;;;;;;;61.70;22.35;;;;;;;2.06;64.05;99989.75;5161046;28;20077;-69
2022/12/19 05:41:29;;;;;;;66.38;22.00;;;;;;;1.97;65.08;99998.00;5140102;28;20101;-69
2022/12/19 05:44:19;;;;;;;63.60;19.98;;;;;;;2.15;65.05;99998.97;5168636;28;20161;-69
2022/12/19 05:47:09;;;;;;;64.88;19.85;;;;;;;2.31;64.02;99986.91;5138839;28;20073;-68
2022/12/19 05:50:00;;;;;;;65.80;21.10;;;;;;;2.29;64.62;99971.31;5140022;28;20054;-69
2022/12/19 05:52:51;;;;;;;59.08;21.17;;;;;;;2.52;63.89;99990.38;5140509;28;20556;-69
2022/12/19 05:55:41;;;;;;;63.25;20.88;;;;;;;2.52;64.17;99970.28;5140508;28;20058;-69
2022/12/19 05:58:31;;;;;;;64.57;21.80;;;;;;;2.56;63.79;99976.22;5143148;28;20057;-69
2022/12/19 06:01:24;;;;;;;65.97;21.17;;;;;;;2.37;65.01;99962.25;5142713;28;20170;-68
2022/12/19 06:04:15;;;;;;;70.78;22.40;;;;;;;2.62;64.19;99970.72;5139129;28;20413;-71
2022/12/19 06:07:05;;;;;;;64.97;20.80;;;;;;;2.77;63.57;99964.75;5148044;28;20217;-68
2022/12/19 06:09:55;;;;;;;63.85;19.92;;;;;;;2.42;63.97;99960.25;5146892;28;20059;-69
2022/12/19 06:12:45;;;;;;;60.78;20.25;;;;;;;2.56;63.39;99970.97;5140072;28;20058;-69
2022/12/19 06:15:35;;;;;;;61.08;20.70;;;;;;;2.41;64.75;99955.94;5141604;28;20149;-70
2022/12/19 06:18:26;;;;;;;63.55;20.85;;;;;;;2.69;63.23;99968.66;5128032;28;20470;-69
2022/12/19 06:21:19;;;;;;;57.80;20.13;;;;;;;2.56;63.99;99970.97;5147370;28;20061;-69
2022/12/19 06:24:09;;;;;;;67.22;22.13;;;;;;;2.20;64.58;99955.16;5151629;28;20050;-68
2022/12/19 06:26:59;;;;;;;60.60;20.33;;;;;;;2.71;63.68;99975.50;5144055;28;20078;-71
2022/12/19 06:29:50;;;;;;;67.18;21.98;;;;;;;2.46;64.49;99967.09;5142131;28;20142;-68
2022/12/19 06:32:40;;;;;;;62.92;20.50;;;;;;;2.78;63.03;99973.44;5145428;28;20054;-69
2022/12/19 06:35:30;;;;;;;60.70;22.05;;;;;;;2.64;64.27;99968.00;5141739;28;20082;-69
2022/12/19 06:38:20;;;;;;;64.97;21.27;;;;;;;2.72;64.15;99947.56;5145411;28;20055;-71
2022/12/19 06:44:21;;;;;;;66.90;21.83;;;;;;;2.83;63.14;99967.09;5142930;28;20334;-69
2022/12/19 06:47:11;;;;;;;57.90;21.05;;;;;;;2.88;63.69;99955.53;5143178;28;20074;-69
2022/12/19 06:50:01;;;;;;;59.45;21.00;;;;;;;2.61;64.44;99953.28;5157785;28;20059;-69
2022/12/19 06:52:51;;;;;;;58.88;20.85;;;;;;;2.82;64.47;99952.31;5149710;28;20430;-69
2022/12/19 06:55:42;;;;;;;60.45;20.73;;;;;;;2.93;64.13;99959.66;5145421;28;20057;-69
2022/12/19 06:58:33;;;;;;;59.40;20.88;;;;;;;3.01;63.88;99964.53;5142129;28;20066;-70
2022/12/19 07:01:47;;;;;;;53.90;19.67;;;;;;;3.04;64.10;99967.84;5143587;28;20069;-72
2022/12/19 07:04:42;;;;;;;54.92;19.73;;;;;;;3.01;64.72;99964.53;5140035;28;20062;-70
2022/12/19 07:07:35;;;;;;;58.70;20.42;;;;;;;2.95;65.19;99955.22;5131412;28;20054;-69
2022/12/19 07:10:26;;;;;;;63.45;21.33;;;;;;;2.99;64.95;99967.22;5133726;28;20138;-70
2022/12/19 07:13:16;;;;;;;62.20;21.73;;;;;;;2.91;64.64;99969.34;5128961;28;20527;-71
2022/12/19 07:16:07;;;;;;;56.88;19.65;;;;;;;3.13;64.27;99971.81;5127522;28;20109;-71
2022/12/19 07:18:58;;;;;;;61.50;22.25;;;;;;;3.16;63.98;99970.81;5122450;28;20054;-70
2022/12/19 07:21:48;;;;;;;58.70;20.27;;;;;;;3.18;64.13;99956.75;5126905;28;20069;-68
2022/12/19 07:24:39;;;;;;;55.05;21.67;;;;;;;3.27;64.24;99971.16;5124810;28;21274;-70
2022/12/19 07:27:30;;;;;;;62.17;20.63;;;;;;;3.14;63.76;99949.06;5130475;28;20504;-70
2022/12/19 07:30:25;;;;;;;61.10;20.95;;;;;;;3.12;64.15;99969.28;5138252;28;20103;-69
2022/12/19 07:33:16;;;;;;;63.38;21.20;;;;;;;3.25;63.69;99963.38;5134882;28;20540;-69
2022/12/19 07:36:11;;;;;;;55.83;19.77;;;;;;;3.11;64.60;99971.03;5139160;28;20065;-70
2022/12/19 07:39:01;;;;;;;60.75;20.95;;;;;;;3.35;64.51;99976.03;5132880;28;20126;-70
2022/12/19 07:41:52;;;;;;;56.35;20.20;;;;;;;3.07;64.57;99959.00;5132788;28;20182;-70
2022/12/19 07:44:52;;;;;;;65.00;19.80;;;;;;;3.02;64.00;99961.84;5132988;28;20049;-69
2022/12/19 07:47:42;;;;;;;58.55;20.20;;;;;;;3.00;65.61;99970.69;5128887;28;20074;-69
2022/12/19 07:50:33;;;;;;;57.40;20.38;;;;;;;2.97;65.19;99966.44;5125915;28;20066;-69
2022/12/19 07:53:24;;;;;;;57.42;19.27;;;;;;;3.26;65.02;99975.56;5121421;28;20106;-69
2022/12/19 07:56:14;;;;;;;55.17;20.48;;;;;;;2.89;65.39;99970.38;5122859;28;20062;-68
2022/12/19 07:59:05;;;;;;;53.60;19.58;;;;;;;3.17;64.74;99948.94;5138281;28;20471;-68
2022/12/19 08:01:55;;;;;;;58.95;21.27;;;;;;;3.18;65.25;99974.22;5134635;28;20119;-67
2022/12/19 08:04:45;;;;;;;57.28;20.30;;;;;;;3.40;64.63;99974.03;5133977;28;20518;-70
2022/12/19 08:07:36;;;;;;;56.67;20.42;;;;;;;3.49;64.51;99984.94;5142514;28;20145;-72
2022/12/19 08:10:26;;;;;;;61.80;21.33;;;;;;;3.43;64.58;99973.88;5113811;28;20105;-72
2022/12/19 08:13:16;;;;;;;58.03;21.30;;;;;;;3.49;64.52;99977.06;5131389;28;20082;-71
2022/12/19 08:16:06;;;;;;;58.13;19.88;;;;;;;3.57;64.94;99976.66;5125792;28;20421;-73
2022/12/19 08:18:56;;;;;;;63.58;22.05;;;;;;;3.63;64.77;99979.00;5131974;28;20113;-72
2022/12/19 08:21:47;;;;;;;65.03;24.08;;;;;;;3.78;64.93;99987.91;5124157;28;20209;-72
2022/12/19 08:24:37;;;;;;;61.30;22.52;;;;;;;3.67;64.56;99972.66;5131742;28;20065;-72
2022/12/19 08:27:27;;;;;;;58.45;20.77;;;;;;;3.94;63.41;99991.44;5127999;28;20058;-71
2022/12/19 08:30:17;;;;;;;63.85;22.13;;;;;;;3.93;63.83;99994.13;5136199;28;20047;-72
2022/12/19 08:33:08;;;;;;;58.17;20.00;;;;;;;3.89;63.64;99990.81;5143978;28;20054;-72
2022/12/19 08:36:03;;;;;;;61.28;21.17;;;;;;;3.93;64.15;99988.88;5131343;28;20054;-72
2022/12/19 08:38:53;;;;;;;134.82;52.53;;;;;;;3.88;64.04;99973.38;5130092;28;20092;-72
2022/12/19 08:41:44;;;;;;;66.53;26.00;;;;;;;3.76;64.93;99979.25;5124940;28;20062;-72
2022/12/19 08:44:34;;;;;;;60.63;22.40;;;;;;;3.83;64.87;99982.41;5125716;28;20047;-73
2022/12/19 08:47:24;;;;;;;65.40;23.90;;;;;;;3.89;64.25;99971.59;5126592;28;20154;-72
2022/12/19 08:50:14;;;;;;;58.38;22.35;;;;;;;3.98;64.04;99973.78;5120156;28;20065;-72
2022/12/19 08:53:04;;;;;;;52.58;20.15;;;;;;;4.15;63.63;99976.38;5153248;28;20792;-72
2022/12/19 08:55:57;;;;;;;61.08;21.30;;;;;;;4.04;64.23;99968.22;5133328;28;20627;-72
2022/12/19 08:58:50;;;;;;;57.20;20.63;;;;;;;4.28;63.86;99981.00;5135082;28;21244;-72
2022/12/19 09:01:40;;;;;;;55.63;19.92;;;;;;;3.93;64.23;99975.78;5137923;28;20695;-72
2022/12/19 09:04:31;;;;;;;48.67;19.48;;;;;;;4.35;63.67;99969.25;5138510;28;20046;-72
2022/12/19 09:07:41;;;;;;;54.72;20.48;;;;;;;4.49;63.18;99964.09;5137614;28;20061;-72
2022/12/19 09:10:34;;;;;;;51.22;19.17;;;;;;;4.35;63.78;99961.38;5140274;28;20108;-73
2022/12/19 09:13:30;;;;;;;68.38;20.25;;;;;;;4.41;63.04;99966.31;5131568;28;20108;-72
2022/12/19 09:16:21;;;;;;;63.05;22.80;;;;;;;4.22;63.62;99967.25;5132108;28;20042;-71
2022/12/19 09:19:14;;;;;;;55.55;19.73;;;;;;;4.39;63.71;99963.75;5123200;28;20529;-72
2022/12/19 09:22:04;;;;;;;54.15;20.30;;;;;;;4.33;63.10;99969.31;5132386;28;20544;-72
2022/12/19 09:24:54;;;;;;;56.90;20.48;;;;;;;4.27;63.56;99959.13;5127401;28;20061;-72
2022/12/19 09:27:44;;;;;;;60.22;20.23;;;;;;;4.50;63.40;99962.31;5129145;28;20061;-72
2022/12/19 09:30:57;;;;;;;54.55;20.60;;;;;;;4.53;62.75;99938.53;5129897;28;20057;-72
2022/12/19 09:33:48;;;;;;;55.40;19.50;;;;;;;4.35;63.03;99948.25;5134049;28;20058;-72
2022/12/19 09:36:38;;;;;;;49.88;18.67;;;;;;;4.81;63.17;99951.03;5127951;28;20081;-69
2022/12/19 09:39:29;;;;;;;51.85;19.55;;;;;;;4.77;63.36;99952.09;5145358;28;20066;-70
2022/12/19 09:42:52;;;;;;;53.40;19.40;;;;;;;4.71;62.59;99955.94;5128729;28;20153;-70
2022/12/19 09:45:51;;;;;;;55.35;20.45;;;;;;;4.94;62.45;99959.94;5135912;28;20085;-70
2022/12/19 09:48:41;;;;;;;57.47;20.63;;;;;;;4.79;62.45;99942.38;5129596;28;20065;-71
2022/12/19 09:51:42;;;;;;;48.13;19.38;;;;;;;4.82;62.98;99942.19;5129186;28;20759;-72
2022/12/19 09:54:40;;;;;;;50.22;19.98;;;;;;;4.97;63.20;99943.13;5140547;28;20049;-71
2022/12/19 09:57:50;;;;;;;53.53;20.05;;;;;;;5.15;62.67;99932.44;5129458;28;20059;-72
2022/12/19 10:00:51;;;;;;;51.72;19.83;;;;;;;5.30;62.79;99924.63;5133604;28;20053;-72
2022/12/19 10:04:11;;;;;;;50.03;18.55;;;;;;;5.42;61.99;99934.44;5134520;28;20060;-71
2022/12/19 10:07:02;;;;;;;54.58;19.38;;;;;;;5.27;61.85;99909.03;5136868;28;20648;-72
2022/12/19 10:10:15;;;;;;;48.53;18.55;;;;;;;5.72;61.18;99934.44;5135960;28;20061;-74
2022/12/19 10:13:49;;;;;;;53.17;19.90;;;;;;;5.88;61.53;99931.75;5131106;28;20137;-69
2022/12/19 10:17:28;;;;;;;46.72;18.50;;;;;;;5.71;62.06;99918.75;5132319;28;20053;-70
2022/12/19 10:20:34;;;;;;;50.13;17.35;;;;;;;5.73;62.04;99919.47;5132867;28;20741;-69
2022/12/19 10:23:49;;;;;;;45.47;18.58;;;;;;;5.84;61.11;99915.28;5142838;28;20059;-70
2022/12/19 10:26:51;;;;;;;47.22;17.67;;;;;;;5.75;61.54;99915.81;5130018;28;20051;-71
2022/12/19 10:30:08;;;;;;;47.92;18.90;;;;;;;5.85;61.20;99914.34;5130974;28;20537;-71
2022/12/19 10:33:04;;;;;;;49.65;19.40;;;;;;;5.96;61.74;99918.16;5133017;28;20054;-71
2022/12/19 10:35:59;;;;;;;52.90;19.90;;;;;;;6.17;60.94;99911.59;5129109;28;20066;-71
2022/12/19 10:39:10;;;;;;;39.45;17.67;;;;;;;5.98;60.95;99897.84;5137811;28;20081;-70
2022/12/19 10:42:14;;;;;;;46.72;18.63;;;;;;;5.61;62.37;99890.34;5130689;28;20065;-69
2022/12/19 10:45:12;;;;;;;47.13;19.67;;;;;;;5.94;62.10;99902.47;5140511;28;20109;-69
2022/12/19 10:48:08;;;;;;;49.72;18.45;;;;;;;6.18;61.22;99883.47;5139040;28;20408;-71
2022/12/19 10:50:58;;;;;;;47.08;18.70;;;;;;;6.09;61.41;99895.41;5125735;28;20105;-74
2022/12/19 10:53:58;;;;;;;43.08;17.67;;;;;;;6.34;60.88;99894.75;5129679;28;20132;-72
2022/12/19 10:56:49;;;;;;;46.63;18.08;;;;;;;6.19;61.50;99872.88;5123392;28;20153;-75
2022/12/19 10:59:53;;;;;;;43.58;18.17;;;;;;;6.35;61.43;99891.19;5123825;28;20093;-70
2022/12/19 11:02:44;;;;;;;;;;;;;;;6.66;60.82;99881.38;5131426;28;20204;-70
2022/12/19 11:05:45;;;;;;;40.25;16.83;;;;;;;6.63;59.86;99857.84;5124911;28;19933;-69
2022/12/19 11:08:40;;;;;;;40.65;17.60;;;;;;;6.64;60.82;99854.25;5129275;28;20063;-70
2022/12/19 11:11:33;;;;;;;47.03;18.33;;;;;;;6.63;60.21;99827.06;5124570;28;20193;-69
2022/12/19 11:15:12;;;;;;;38.65;17.20;;;;;;;6.62;60.43;99856.13;5131834;28;20056;-70
2022/12/19 11:18:24;;;;;;;41.83;17.67;;;;;;;6.57;60.05;99838.84;5128088;28;20736;-70
2022/12/19 11:21:34;;;;;;;44.42;17.08;;;;;;;7.01;58.58;99853.56;5129653;28;20066;-72
2022/12/19 11:24:49;;;;;;;41.72;16.95;;;;;;;6.96;59.70;99847.78;5128517;28;20142;-70
2022/12/19 11:28:03;;;;;;;37.00;15.68;;;;;;;7.14;58.64;99834.31;5131528;28;20121;-71
2022/12/19 11:31:25;;;;;;;38.40;16.73;;;;;;;7.30;58.31;99842.91;5130282;28;20050;-72
2022/12/19 11:34:36;;;;;;;39.67;16.80;;;;;;;7.12;59.51;99831.78;5131810;28;20057;-70
2022/12/19 11:37:37;;;;;;;41.28;16.90;;;;;;;7.10;59.69;99840.75;5126669;28;20054;-70
2022/12/19 11:40:35;;;;;;;41.40;17.20;;;;;;;6.95;59.83;99822.31;5126692;28;20504;-69
2022/12/19 11:43:40;;;;;;;38.22;17.30;;;;;;;6.96;60.50;99824.03;5125790;28;20059;-69
2022/12/19 11:46:39;;;;;;;46.60;19.23;;;;;;;6.94;59.75;99819.81;5125996;28;20772;-72
2022/12/19 11:49:50;;;;;;;39.22;16.95;;;;;;;7.04;60.35;99821.72;5123679;28;20314;-70
2022/12/19 11:53:05;;;;;;;39.38;17.00;;;;;;;7.06;59.90;99819.84;5125265;28;20054;-71
2022/12/19 11:56:09;;;;;;;38.08;16.70;;;;;;;7.11;60.15;99813.41;5126084;28;20047;-69
2022/12/19 11:59:24;;;;;;;35.85;16.80;;;;;;;7.06;59.30;99808.47;5123990;28;20220;-71
2022/12/19 12:02:50;;;;;;;40.03;16.23;;;;;;;7.37;58.29;99809.88;5123049;28;20058;-68
2022/12/19 12:05:46;;;;;;;36.63;14.90;;;;;;;7.41;58.54;99792.88;5142652;28;20065;-69
2022/12/19 12:08:59;;;;;;;33.90;15.45;;;;;;;7.26;59.57;99796.56;5137933;28;20112;-69
2022/12/19 12:12:25;;;;;;;40.08;15.30;;;;;;;7.02;59.71;99801.72;5142914;28;20058;-70
2022/12/19 12:15:45;;;;;;;27.35;13.43;;;;;;;7.26;59.77;99809.78;5136518;28;20058;-72
2022/12/19 12:19:04;;;;;;;36.63;14.68;;;;;;;7.03;59.60;99803.38;5153271;28;20127;-71
2022/12/19 12:23:03;;;;;;;35.78;14.60;;;;;;;7.34;59.27;99788.13;5140862;28;20095;-71
2022/12/19 12:26:24;;;;;;;36.60;15.20;;;;;;;7.37;59.33;99791.41;5123633;28;20053;-70
2022/12/19 12:29:50;;;;;;;38.40;15.27;;;;;;;7.26;59.97;99797.41;5142743;28;20047;-71
2022/12/19 12:33:11;;;;;;;34.45;15.35;;;;;;;7.36;58.94;99780.97;5140821;28;20087;-74
2022/12/19 12:36:31;;;;;;;36.05;15.15;;;;;;;7.46;58.80;99774.13;5138370;28;20087;-72
2022/12/19 12:40:00;;;;;;;35.13;15.80;;;;;;;7.23;60.09;99776.53;5141248;28;20069;-70
2022/12/19 12:43:08;;;;;;;42.08;16.35;;;;;;;7.14;59.70;99774.50;5142851;28;20134;-72
2022/12/19 12:46:01;;;;;;;40.67;15.52;;;;;;;6.94;61.06;99769.72;5136451;28;20050;-74
2022/12/19 12:49:01;;;;;;;33.95;15.65;;;;;;;6.45;61.24;99752.66;5133419;28;21058;-71
2022/12/19 12:51:52;;;;;;;32.10;14.02;;;;;;;6.24;62.02;99746.16;5143210;28;20061;-72
2022/12/19 12:54:44;;;;;;;33.63;15.85;;;;;;;6.28;62.75;99731.84;5137966;28;20070;-72
2022/12/19 12:57:37;;;;;;;30.85;14.77;;;;;;;6.15;63.47;99749.38;5126126;28;20081;-73
2022/12/19 13:00:32;;;;;;;34.08;15.80;;;;;;;6.82;60.61;99747.63;5138304;28;20140;-73
2022/12/19 13:03:26;;;;;;;35.15;14.90;;;;;;;7.22;60.04;99745.00;5134526;28;20073;-74
2022/12/19 13:06:33;;;;;;;32.33;15.10;;;;;;;7.33;59.35;99737.19;5132303;28;20062;-75
2022/12/19 13:09:29;;;;;;;39.05;15.48;;;;;;;7.56;59.16;99742.66;5131719;28;20070;-74
2022/12/19 13:15:57;;;;;;;31.67;14.70;;;;;;;7.73;59.14;99756.38;5135932;28;20047;-76
2022/12/19 13:19:11;;;;;;;36.60;15.48;;;;;;;7.84;58.47;99755.59;5135162;28;20059;-73
2022/12/19 13:22:17;;;;;;;31.48;14.63;;;;;;;7.67;58.18;99729.56;5138184;28;20054;-75
2022/12/19 13:25:40;;;;;;;33.20;15.45;;;;;;;7.74;58.30;99747.50;5132058;28;20057;-74
2022/12/19 13:28:37;;;;;;;39.72;15.95;;;;;;;7.72;58.76;99741.50;5145122;28;20146;-76
2022/12/19 13:31:34;;;;;;;32.50;14.18;;;;;;;7.54;59.43;99745.41;5132620;28;20069;-77
2022/12/19 13:34:35;;;;;;;37.65;15.18;;;;;;;7.62;59.02;99739.59;5132848;28;20062;-75
2022/12/19 13:37:40;;;;;;;35.35;15.80;;;;;;;7.60;58.73;99729.16;5130744;28;20116;-74
2022/12/19 13:40:58;;;;;;;36.15;16.35;;;;;;;7.41;59.62;99728.72;5140952;28;20560;-77
2022/12/19 13:43:48;;;;;;;33.67;14.77;;;;;;;7.52;58.58;99744.69;5144760;28;20141;-77
2022/12/19 13:46:42;;;;;;;38.75;16.23;;;;;;;7.10;60.30;99722.91;5130410;28;20051;-75
2022/12/19 13:49:32;;;;;;;35.58;15.93;;;;;;;7.30;60.04;99717.13;5129431;28;20074;-72